sensor_id;sensor_type;location;lat;lon;timestamp;pressure;altitude;pressure_sealevel;temperature;humidity
59329;BME280;45100;46.926;7.452;2023-08-07T00:01:53;95581.58;;;11.68;88.73
59329;BME280;45100;46.926;7.452;2023-08-07T00:04:23;95569.22;;;11.62;87.76
59329;BME280;45100;46.926;7.452;2023-08-07T00:06:54;95565.33;;;11.55;87.76
59329;BME280;45100;46.926;7.452;2023-08-07T00:09:24;95559.61;;;11.50;87.31
59329;BME280;45100;46.926;7.452;2023-08-07T00:11:55;95556.84;;;11.43;86.60
59329;BME280;45100;46.926;7.452;2023-08-07T00:14:26;95554.48;;;11.37;86.31
59329;BME280;45100;46.926;7.452;2023-08-07T00:16:56;95555.62;;;11.31;86.35
59329;BME280;45100;46.926;7.452;2023-08-07T00:19:27;95559.91;;;11.29;86.38
59329;BME280;45100;46.926;7.452;2023-08-07T00:21:57;95561.31;;;11.27;85.77
59329;BME280;45100;46.926;7.452;2023-08-07T00:24:28;95564.95;;;11.25;85.61
59329;BME280;45100;46.926;7.452;2023-08-07T00:26:58;95565.28;;;11.24;85.67
59329;BME280;45100;46.926;7.452;2023-08-07T00:29:29;95568.67;;;11.24;85.12
59329;BME280;45100;46.926;7.452;2023-08-07T00:31:59;95565.02;;;11.25;85.49
59329;BME280;45100;46.926;7.452;2023-08-07T00:34:30;95570.46;;;11.28;84.98
59329;BME280;45100;46.926;7.452;2023-08-07T00:37:01;95575.05;;;11.30;85.41
59329;BME280;45100;46.926;7.452;2023-08-07T00:39:31;95574.22;;;11.33;85.88
59329;BME280;45100;46.926;7.452;2023-08-07T00:42:02;95574.81;;;11.36;86.19
59329;BME280;45100;46.926;7.452;2023-08-07T00:44:33;95575.73;;;11.39;86.43
59329;BME280;45100;46.926;7.452;2023-08-07T00:47:04;95580.34;;;11.41;85.21
59329;BME280;45100;46.926;7.452;2023-08-07T00:49:33;95579.94;;;11.44;85.71
59329;BME280;45100;46.926;7.452;2023-08-07T00:52:04;95577.25;;;11.48;86.07
59329;BME280;45100;46.926;7.452;2023-08-07T00:54:35;95573.16;;;11.51;86.84
59329;BME280;45100;46.926;7.452;2023-08-07T00:57:12;95575.09;;;11.52;87.92
59329;BME280;45100;46.926;7.452;2023-08-07T00:59:36;95578.75;;;11.52;88.40
59329;BME280;45100;46.926;7.452;2023-08-07T01:02:07;95577.77;;;11.49;88.57
59329;BME280;45100;46.926;7.452;2023-08-07T01:04:37;95574.81;;;11.46;88.93
59329;BME280;45100;46.926;7.452;2023-08-07T01:07:08;95572.06;;;11.40;89.30
59329;BME280;45100;46.926;7.452;2023-08-07T01:09:39;95568.25;;;11.35;89.20
59329;BME280;45100;46.926;7.452;2023-08-07T01:12:21;95571.33;;;11.30;89.39
59329;BME280;45100;46.926;7.452;2023-08-07T01:14:52;95573.64;;;11.26;89.89
59329;BME280;45100;46.926;7.452;2023-08-07T01:17:14;95569.58;;;11.25;90.35
59329;BME280;45100;46.926;7.452;2023-08-07T01:19:42;95566.19;;;11.23;90.99
59329;BME280;45100;46.926;7.452;2023-08-07T01:22:13;95564.91;;;11.20;90.96
59329;BME280;45100;46.926;7.452;2023-08-07T01:24:44;95570.95;;;11.17;91.26
59329;BME280;45100;46.926;7.452;2023-08-07T01:34:51;95575.83;;;11.01;92.10
59329;BME280;45100;46.926;7.452;2023-08-07T01:39:55;95584.88;;;11.01;93.11
59329;BME280;45100;46.926;7.452;2023-08-07T01:42:24;95588.08;;;11.01;93.02
59329;BME280;45100;46.926;7.452;2023-08-07T01:44:55;95596.83;;;11.03;93.18
59329;BME280;45100;46.926;7.452;2023-08-07T01:47:26;95599.64;;;11.05;93.23
59329;BME280;45100;46.926;7.452;2023-08-07T01:49:56;95598.75;;;11.07;93.56
59329;BME280;45100;46.926;7.452;2023-08-07T01:52:27;95606.04;;;11.11;93.80
59329;BME280;45100;46.926;7.452;2023-08-07T01:54:58;95607.03;;;11.14;93.86
59329;BME280;45100;46.926;7.452;2023-08-07T01:57:29;95609.66;;;11.17;93.79
59329;BME280;45100;46.926;7.452;2023-08-07T01:59:59;95607.88;;;11.18;93.49
59329;BME280;45100;46.926;7.452;2023-08-07T02:02:30;95606.09;;;11.20;93.60
59329;BME280;45100;46.926;7.452;2023-08-07T02:07:34;95597.56;;;11.23;93.47
59329;BME280;45100;46.926;7.452;2023-08-07T02:10:04;95598.05;;;11.25;93.27
59329;BME280;45100;46.926;7.452;2023-08-07T02:12:34;95602.54;;;11.25;93.15
59329;BME280;45100;46.926;7.452;2023-08-07T02:15:06;95605.86;;;11.26;92.50
59329;BME280;45100;46.926;7.452;2023-08-07T02:17:39;95605.23;;;11.28;92.29
59329;BME280;45100;46.926;7.452;2023-08-07T02:20:07;95607.40;;;11.30;91.73
59329;BME280;45100;46.926;7.452;2023-08-07T02:22:37;95602.09;;;11.30;91.72
59329;BME280;45100;46.926;7.452;2023-08-07T02:25:08;95599.28;;;11.28;89.65
59329;BME280;45100;46.926;7.452;2023-08-07T02:27:38;95602.35;;;11.29;89.52
59329;BME280;45100;46.926;7.452;2023-08-07T02:30:08;95599.76;;;11.30;88.87
59329;BME280;45100;46.926;7.452;2023-08-07T02:32:39;95601.24;;;11.31;88.34
59329;BME280;45100;46.926;7.452;2023-08-07T02:35:09;95600.34;;;11.31;87.76
59329;BME280;45100;46.926;7.452;2023-08-07T02:37:40;95592.89;;;11.31;87.20
59329;BME280;45100;46.926;7.452;2023-08-07T02:42:47;95587.45;;;11.26;86.30
59329;BME280;45100;46.926;7.452;2023-08-07T02:45:18;95589.09;;;11.23;85.98
59329;BME280;45100;46.926;7.452;2023-08-07T02:47:48;95588.50;;;11.20;85.62
59329;BME280;45100;46.926;7.452;2023-08-07T02:50:19;95587.45;;;11.16;85.90
59329;BME280;45100;46.926;7.452;2023-08-07T02:52:50;95591.38;;;11.13;86.24
59329;BME280;45100;46.926;7.452;2023-08-07T02:55:21;95593.20;;;11.11;86.33
59329;BME280;45100;46.926;7.452;2023-08-07T02:57:51;95602.28;;;11.12;86.60
59329;BME280;45100;46.926;7.452;2023-08-07T03:00:22;95603.27;;;11.14;86.17
59329;BME280;45100;46.926;7.452;2023-08-07T03:02:53;95606.50;;;11.16;85.89
59329;BME280;45100;46.926;7.452;2023-08-07T03:05:24;95609.91;;;11.20;86.10
59329;BME280;45100;46.926;7.452;2023-08-07T03:07:54;95605.95;;;11.22;85.78
59329;BME280;45100;46.926;7.452;2023-08-07T03:10:25;95609.05;;;11.25;85.63
59329;BME280;45100;46.926;7.452;2023-08-07T03:12:56;95608.73;;;11.27;85.31
59329;BME280;45100;46.926;7.452;2023-08-07T03:15:26;95600.55;;;11.28;85.07
59329;BME280;45100;46.926;7.452;2023-08-07T03:17:57;95596.30;;;11.29;85.73
59329;BME280;45100;46.926;7.452;2023-08-07T03:20:28;95598.58;;;11.28;85.57
59329;BME280;45100;46.926;7.452;2023-08-07T03:22:59;95600.27;;;11.27;85.83
59329;BME280;45100;46.926;7.452;2023-08-07T03:25:29;95599.50;;;11.25;86.09
59329;BME280;45100;46.926;7.452;2023-08-07T03:28:00;95606.81;;;11.24;86.77
59329;BME280;45100;46.926;7.452;2023-08-07T03:30:31;95606.53;;;11.22;87.15
59329;BME280;45100;46.926;7.452;2023-08-07T03:33:02;95607.50;;;11.22;87.88
59329;BME280;45100;46.926;7.452;2023-08-07T03:35:32;95606.44;;;11.21;87.93
59329;BME280;45100;46.926;7.452;2023-08-07T03:38:03;95608.30;;;11.20;88.38
59329;BME280;45100;46.926;7.452;2023-08-07T03:40:34;95608.17;;;11.19;89.05
59329;BME280;45100;46.926;7.452;2023-08-07T03:43:05;95609.27;;;11.18;89.26
59329;BME280;45100;46.926;7.452;2023-08-07T03:45:35;95614.30;;;11.16;89.36
59329;BME280;45100;46.926;7.452;2023-08-07T03:50:39;95614.34;;;11.13;89.20
59329;BME280;45100;46.926;7.452;2023-08-07T03:53:10;95612.19;;;11.11;89.51
59329;BME280;45100;46.926;7.452;2023-08-07T03:58:16;95610.77;;;11.10;90.21
59329;BME280;45100;46.926;7.452;2023-08-07T04:00:46;95608.17;;;11.11;90.57
59329;BME280;45100;46.926;7.452;2023-08-07T04:03:18;95608.85;;;11.11;90.45
59329;BME280;45100;46.926;7.452;2023-08-07T04:05:47;95607.62;;;11.10;89.95
59329;BME280;45100;46.926;7.452;2023-08-07T04:10:58;95604.18;;;11.08;90.45
59329;BME280;45100;46.926;7.452;2023-08-07T04:13:21;95603.46;;;11.09;90.43
59329;BME280;45100;46.926;7.452;2023-08-07T04:15:52;95610.21;;;11.12;90.42
59329;BME280;45100;46.926;7.452;2023-08-07T04:18:23;95612.34;;;11.12;90.08
59329;BME280;45100;46.926;7.452;2023-08-07T04:20:55;95613.38;;;11.13;89.83
59329;BME280;45100;46.926;7.452;2023-08-07T04:23:24;95614.64;;;11.11;90.15
59329;BME280;45100;46.926;7.452;2023-08-07T04:25:54;95619.77;;;11.07;90.85
59329;BME280;45100;46.926;7.452;2023-08-07T04:28:27;95623.40;;;11.06;91.42
59329;BME280;45100;46.926;7.452;2023-08-07T04:30:55;95626.08;;;11.07;91.63
59329;BME280;45100;46.926;7.452;2023-08-07T04:33:26;95628.30;;;11.08;91.95
59329;BME280;45100;46.926;7.452;2023-08-07T04:35:57;95630.27;;;11.10;92.28
59329;BME280;45100;46.926;7.452;2023-08-07T04:38:27;95631.39;;;11.12;92.50
59329;BME280;45100;46.926;7.452;2023-08-07T04:40:58;95620.55;;;11.13;92.72
59329;BME280;45100;46.926;7.452;2023-08-07T04:43:29;95627.05;;;11.12;92.13
59329;BME280;45100;46.926;7.452;2023-08-07T04:46:00;95624.95;;;11.12;91.11
59329;BME280;45100;46.926;7.452;2023-08-07T04:48:29;95629.52;;;11.12;90.87
59329;BME280;45100;46.926;7.452;2023-08-07T04:51:00;95627.34;;;11.14;90.73
59329;BME280;45100;46.926;7.452;2023-08-07T04:53:31;95634.03;;;11.16;90.61
59329;BME280;45100;46.926;7.452;2023-08-07T04:56:02;95634.75;;;11.20;90.24
59329;BME280;45100;46.926;7.452;2023-08-07T04:58:32;95631.80;;;11.20;89.82
59329;BME280;45100;46.926;7.452;2023-08-07T05:01:03;95625.00;;;11.18;89.90
59329;BME280;45100;46.926;7.452;2023-08-07T05:03:33;95631.45;;;11.13;90.71
59329;BME280;45100;46.926;7.452;2023-08-07T05:06:04;95631.75;;;11.11;91.51
59329;BME280;45100;46.926;7.452;2023-08-07T05:08:35;95630.48;;;11.12;92.17
59329;BME280;45100;46.926;7.452;2023-08-07T05:11:05;95629.15;;;11.14;92.35
59329;BME280;45100;46.926;7.452;2023-08-07T05:13:36;95627.32;;;11.18;92.46
59329;BME280;45100;46.926;7.452;2023-08-07T05:16:07;95625.43;;;11.21;92.34
59329;BME280;45100;46.926;7.452;2023-08-07T05:18:38;95624.66;;;11.26;92.32
59329;BME280;45100;46.926;7.452;2023-08-07T05:21:09;95626.34;;;11.30;91.74
59329;BME280;45100;46.926;7.452;2023-08-07T05:23:39;95618.29;;;11.31;91.59
59329;BME280;45100;46.926;7.452;2023-08-07T05:26:10;95622.78;;;11.32;91.75
59329;BME280;45100;46.926;7.452;2023-08-07T05:28:40;95622.38;;;11.35;92.29
59329;BME280;45100;46.926;7.452;2023-08-07T05:33:44;95628.10;;;11.41;92.24
59329;BME280;45100;46.926;7.452;2023-08-07T05:36:14;95632.66;;;11.47;91.93
59329;BME280;45100;46.926;7.452;2023-08-07T05:38:44;95637.96;;;11.53;91.41
59329;BME280;45100;46.926;7.452;2023-08-07T05:41:15;95638.45;;;11.59;91.22
59329;BME280;45100;46.926;7.452;2023-08-07T05:43:46;95637.00;;;11.63;90.05
59329;BME280;45100;46.926;7.452;2023-08-07T05:46:17;95638.52;;;11.69;90.29
59329;BME280;45100;46.926;7.452;2023-08-07T05:48:48;95635.25;;;11.77;90.62
59329;BME280;45100;46.926;7.452;2023-08-07T05:51:20;95641.23;;;11.87;91.46
59329;BME280;45100;46.926;7.452;2023-08-07T05:53:49;95644.31;;;11.95;91.44
59329;BME280;45100;46.926;7.452;2023-08-07T05:56:20;95650.19;;;12.01;91.90
59329;BME280;45100;46.926;7.452;2023-08-07T05:58:50;95647.85;;;12.06;91.03
59329;BME280;45100;46.926;7.452;2023-08-07T06:01:21;95649.19;;;12.08;90.80
59329;BME280;45100;46.926;7.452;2023-08-07T06:03:52;95647.06;;;12.11;91.19
59329;BME280;45100;46.926;7.452;2023-08-07T06:06:22;95650.77;;;12.14;90.78
59329;BME280;45100;46.926;7.452;2023-08-07T06:08:53;95659.70;;;12.14;89.55
59329;BME280;45100;46.926;7.452;2023-08-07T06:11:24;95664.06;;;12.09;88.32
59329;BME280;45100;46.926;7.452;2023-08-07T06:13:54;95661.45;;;12.01;88.49
59329;BME280;45100;46.926;7.452;2023-08-07T06:16:25;95664.23;;;11.95;88.44
59329;BME280;45100;46.926;7.452;2023-08-07T06:18:55;95675.84;;;11.92;88.60
59329;BME280;45100;46.926;7.452;2023-08-07T06:21:25;95681.75;;;11.91;88.45
59329;BME280;45100;46.926;7.452;2023-08-07T06:23:56;95686.96;;;11.90;88.45
59329;BME280;45100;46.926;7.452;2023-08-07T06:26:26;95685.67;;;11.90;89.01
59329;BME280;45100;46.926;7.452;2023-08-07T06:28:57;95688.97;;;11.90;89.75
59329;BME280;45100;46.926;7.452;2023-08-07T06:31:27;95688.12;;;11.91;89.74
59329;BME280;45100;46.926;7.452;2023-08-07T06:34:00;95681.75;;;11.91;89.64
59329;BME280;45100;46.926;7.452;2023-08-07T06:36:29;95677.64;;;11.90;90.01
59329;BME280;45100;46.926;7.452;2023-08-07T06:39:00;95680.89;;;11.93;89.88
59329;BME280;45100;46.926;7.452;2023-08-07T06:41:31;95686.42;;;11.94;90.05
59329;BME280;45100;46.926;7.452;2023-08-07T06:44:01;95687.52;;;11.94;89.85
59329;BME280;45100;46.926;7.452;2023-08-07T06:46:31;95686.19;;;11.95;89.98
59329;BME280;45100;46.926;7.452;2023-08-07T06:49:02;95692.67;;;11.95;89.76
59329;BME280;45100;46.926;7.452;2023-08-07T06:51:33;95686.98;;;11.97;90.24
59329;BME280;45100;46.926;7.452;2023-08-07T06:54:05;95692.50;;;11.99;90.17
59329;BME280;45100;46.926;7.452;2023-08-07T06:56:34;95695.48;;;11.99;89.91
59329;BME280;45100;46.926;7.452;2023-08-07T06:59:05;95697.15;;;12.01;90.53
59329;BME280;45100;46.926;7.452;2023-08-07T07:01:36;95696.70;;;12.06;90.77
59329;BME280;45100;46.926;7.452;2023-08-07T07:04:06;95696.90;;;12.09;90.79
59329;BME280;45100;46.926;7.452;2023-08-07T07:06:37;95698.52;;;12.13;90.79
59329;BME280;45100;46.926;7.452;2023-08-07T07:09:07;95698.64;;;12.15;90.63
59329;BME280;45100;46.926;7.452;2023-08-07T07:11:38;95702.79;;;12.19;90.87
59329;BME280;45100;46.926;7.452;2023-08-07T07:14:08;95705.19;;;12.23;90.42
59329;BME280;45100;46.926;7.452;2023-08-07T07:16:39;95704.55;;;12.26;90.71
59329;BME280;45100;46.926;7.452;2023-08-07T07:19:10;95704.48;;;12.34;90.74
59329;BME280;45100;46.926;7.452;2023-08-07T07:21:40;95714.01;;;12.43;90.47
59329;BME280;45100;46.926;7.452;2023-08-07T07:24:10;95721.83;;;12.52;89.36
59329;BME280;45100;46.926;7.452;2023-08-07T07:26:41;95722.89;;;12.61;87.95
59329;BME280;45100;46.926;7.452;2023-08-07T07:29:12;95714.30;;;12.68;86.45
59329;BME280;45100;46.926;7.452;2023-08-07T07:31:43;95708.65;;;12.76;87.06
59329;BME280;45100;46.926;7.452;2023-08-07T07:34:13;95704.95;;;12.85;87.42
59329;BME280;45100;46.926;7.452;2023-08-07T07:36:46;95701.15;;;12.98;86.80
59329;BME280;45100;46.926;7.452;2023-08-07T07:39:14;95699.27;;;13.10;86.85
59329;BME280;45100;46.926;7.452;2023-08-07T07:41:45;95707.41;;;13.22;87.28
59329;BME280;45100;46.926;7.452;2023-08-07T07:44:16;95700.94;;;13.31;85.97
59329;BME280;45100;46.926;7.452;2023-08-07T07:46:46;95706.58;;;13.34;84.85
59329;BME280;45100;46.926;7.452;2023-08-07T07:49:17;95712.02;;;13.33;83.85
59329;BME280;45100;46.926;7.452;2023-08-07T07:51:50;95714.52;;;13.31;83.58
59329;BME280;45100;46.926;7.452;2023-08-07T07:54:18;95721.70;;;13.29;84.21
59329;BME280;45100;46.926;7.452;2023-08-07T07:56:49;95721.64;;;13.28;85.00
59329;BME280;45100;46.926;7.452;2023-08-07T07:59:20;95721.17;;;13.29;85.20
59329;BME280;45100;46.926;7.452;2023-08-07T08:01:51;95721.48;;;13.28;84.55
59329;BME280;45100;46.926;7.452;2023-08-07T08:04:21;95719.80;;;13.25;85.03
59329;BME280;45100;46.926;7.452;2023-08-07T08:06:51;95721.75;;;13.22;85.24
59329;BME280;45100;46.926;7.452;2023-08-07T08:09:22;95721.80;;;13.18;85.00
59329;BME280;45100;46.926;7.452;2023-08-07T08:11:53;95726.02;;;13.15;85.46
59329;BME280;45100;46.926;7.452;2023-08-07T08:14:24;95729.03;;;13.15;85.96
59329;BME280;45100;46.926;7.452;2023-08-07T08:16:54;95730.66;;;13.17;86.00
59329;BME280;45100;46.926;7.452;2023-08-07T08:19:25;95736.20;;;13.21;85.82
59329;BME280;45100;46.926;7.452;2023-08-07T08:21:56;95734.50;;;13.22;86.26
59329;BME280;45100;46.926;7.452;2023-08-07T08:24:27;95734.52;;;13.29;87.36
59329;BME280;45100;46.926;7.452;2023-08-07T08:26:57;95736.77;;;13.39;87.72
59329;BME280;45100;46.926;7.452;2023-08-07T08:29:28;95732.73;;;13.51;87.51
59329;BME280;45100;46.926;7.452;2023-08-07T08:31:58;95734.32;;;13.67;87.19
59329;BME280;45100;46.926;7.452;2023-08-07T08:34:29;95728.88;;;13.83;86.40
59329;BME280;45100;46.926;7.452;2023-08-07T08:36:59;95729.45;;;13.95;85.57
59329;BME280;45100;46.926;7.452;2023-08-07T08:39:30;95726.28;;;14.06;85.56
59329;BME280;45100;46.926;7.452;2023-08-07T08:42:00;95730.38;;;14.12;85.22
59329;BME280;45100;46.926;7.452;2023-08-07T08:44:31;95734.55;;;14.13;84.96
59329;BME280;45100;46.926;7.452;2023-08-07T08:47:02;95738.20;;;14.08;84.63
59329;BME280;45100;46.926;7.452;2023-08-07T08:49:35;95745.77;;;14.02;83.74
59329;BME280;45100;46.926;7.452;2023-08-07T08:52:04;95739.41;;;13.96;83.84
59329;BME280;45100;46.926;7.452;2023-08-07T08:54:34;95740.94;;;13.97;84.15
59329;BME280;45100;46.926;7.452;2023-08-07T08:57:06;95739.27;;;14.00;83.99
59329;BME280;45100;46.926;7.452;2023-08-07T08:59:35;95741.01;;;14.03;83.52
59329;BME280;45100;46.926;7.452;2023-08-07T09:02:07;95740.00;;;14.01;83.37
59329;BME280;45100;46.926;7.452;2023-08-07T09:04:36;95738.83;;;14.03;84.52
59329;BME280;45100;46.926;7.452;2023-08-07T09:07:07;95739.73;;;14.07;84.65
59329;BME280;45100;46.926;7.452;2023-08-07T09:09:38;95741.04;;;14.12;83.89
59329;BME280;45100;46.926;7.452;2023-08-07T09:12:23;95743.84;;;14.14;84.14
59329;BME280;45100;46.926;7.452;2023-08-07T09:14:41;95744.97;;;14.17;83.75
59329;BME280;45100;46.926;7.452;2023-08-07T09:17:10;95748.30;;;14.20;83.34
59329;BME280;45100;46.926;7.452;2023-08-07T09:19:39;95744.97;;;14.27;82.38
59329;BME280;45100;46.926;7.452;2023-08-07T09:22:10;95741.25;;;14.39;82.24
59329;BME280;45100;46.926;7.452;2023-08-07T09:24:40;95732.89;;;14.57;82.70
59329;BME280;45100;46.926;7.452;2023-08-07T09:27:11;95732.30;;;14.84;84.57
59329;BME280;45100;46.926;7.452;2023-08-07T09:29:43;95729.22;;;15.07;84.20
59329;BME280;45100;46.926;7.452;2023-08-07T09:34:45;95730.62;;;15.26;80.62
59329;BME280;45100;46.926;7.452;2023-08-07T09:37:15;95729.22;;;15.29;79.80
59329;BME280;45100;46.926;7.452;2023-08-07T09:39:46;95727.63;;;15.35;78.83
59329;BME280;45100;46.926;7.452;2023-08-07T09:42:17;95726.98;;;15.50;81.25
59329;BME280;45100;46.926;7.452;2023-08-07T09:44:49;95728.34;;;15.71;81.80
59329;BME280;45100;46.926;7.452;2023-08-07T09:47:19;95732.03;;;15.81;75.27
59329;BME280;45100;46.926;7.452;2023-08-07T09:49:54;95729.66;;;15.82;76.29
59329;BME280;45100;46.926;7.452;2023-08-07T09:52:19;95737.55;;;15.79;77.01
59329;BME280;45100;46.926;7.452;2023-08-07T09:54:49;95733.80;;;15.80;76.53
59329;BME280;45100;46.926;7.452;2023-08-07T09:57:20;95731.28;;;15.78;75.80
59329;BME280;45100;46.926;7.452;2023-08-07T09:59:52;95732.30;;;15.78;76.52
59329;BME280;45100;46.926;7.452;2023-08-07T10:02:21;95730.14;;;15.83;78.98
59329;BME280;45100;46.926;7.452;2023-08-07T10:04:52;95732.79;;;15.98;77.88
59329;BME280;45100;46.926;7.452;2023-08-07T10:07:22;95730.34;;;16.14;77.16
59329;BME280;45100;46.926;7.452;2023-08-07T10:09:54;95733.53;;;16.31;76.73
59329;BME280;45100;46.926;7.452;2023-08-07T10:12:23;95730.33;;;16.48;73.33
59329;BME280;45100;46.926;7.452;2023-08-07T10:14:53;95734.64;;;16.60;75.81
59329;BME280;45100;46.926;7.452;2023-08-07T10:17:24;95727.23;;;16.73;72.81
59329;BME280;45100;46.926;7.452;2023-08-07T10:19:54;95725.58;;;16.86;69.70
59329;BME280;45100;46.926;7.452;2023-08-07T10:22:25;95730.41;;;16.96;66.58
59329;BME280;45100;46.926;7.452;2023-08-07T10:25:00;95718.26;;;16.87;57.99
59329;BME280;45100;46.926;7.452;2023-08-07T10:27:27;95717.17;;;16.64;57.24
59329;BME280;45100;46.926;7.452;2023-08-07T10:29:57;95721.81;;;16.51;67.42
59329;BME280;45100;46.926;7.452;2023-08-07T10:32:27;95716.00;;;16.47;66.51
59329;BME280;45100;46.926;7.452;2023-08-07T10:34:58;95720.14;;;16.52;68.35
59329;BME280;45100;46.926;7.452;2023-08-07T10:37:32;95719.44;;;16.58;67.23
59329;BME280;45100;46.926;7.452;2023-08-07T10:40:03;95722.83;;;16.59;62.77
59329;BME280;45100;46.926;7.452;2023-08-07T10:45:01;95721.66;;;16.51;64.66
59329;BME280;45100;46.926;7.452;2023-08-07T10:47:34;95718.16;;;16.54;63.33
59329;BME280;45100;46.926;7.452;2023-08-07T10:50:03;95719.34;;;16.57;62.24
59329;BME280;45100;46.926;7.452;2023-08-07T10:52:32;95716.71;;;16.62;62.09
59329;BME280;45100;46.926;7.452;2023-08-07T10:57:39;95718.48;;;16.89;63.19
59329;BME280;45100;46.926;7.452;2023-08-07T11:00:12;95715.92;;;17.05;58.80
59329;BME280;45100;46.926;7.452;2023-08-07T11:02:37;95720.12;;;17.18;59.35
59329;BME280;45100;46.926;7.452;2023-08-07T11:05:08;95714.66;;;17.29;58.96
59329;BME280;45100;46.926;7.452;2023-08-07T11:07:40;95710.38;;;17.40;55.66
59329;BME280;45100;46.926;7.452;2023-08-07T11:10:12;95701.19;;;17.49;54.75
59329;BME280;45100;46.926;7.452;2023-08-07T11:12:40;95697.02;;;17.51;53.78
59329;BME280;45100;46.926;7.452;2023-08-07T11:15:13;95703.70;;;17.44;52.21
59329;BME280;45100;46.926;7.452;2023-08-07T11:17:42;95713.11;;;17.20;52.72
59329;BME280;45100;46.926;7.452;2023-08-07T11:20:12;95729.98;;;16.90;54.25
59329;BME280;45100;46.926;7.452;2023-08-07T11:25:17;95737.30;;;16.10;63.41
59329;BME280;45100;46.926;7.452;2023-08-07T11:27:46;95736.53;;;15.89;67.33
59329;BME280;45100;46.926;7.452;2023-08-07T11:30:17;95731.24;;;15.83;70.46
59329;BME280;45100;46.926;7.452;2023-08-07T11:32:49;95720.44;;;15.92;74.78
59329;BME280;45100;46.926;7.452;2023-08-07T11:35:19;95721.15;;;16.08;76.23
59329;BME280;45100;46.926;7.452;2023-08-07T11:37:48;95711.88;;;16.28;77.18
59329;BME280;45100;46.926;7.452;2023-08-07T11:40:19;95706.69;;;16.54;78.45
59329;BME280;45100;46.926;7.452;2023-08-07T11:42:50;95703.38;;;16.78;76.60
59329;BME280;45100;46.926;7.452;2023-08-07T11:45:21;95697.44;;;16.96;74.09
59329;BME280;45100;46.926;7.452;2023-08-07T11:47:51;95698.78;;;17.07;72.57
59329;BME280;45100;46.926;7.452;2023-08-07T11:50:22;95692.45;;;17.10;74.07
59329;BME280;45100;46.926;7.452;2023-08-07T11:52:53;95698.70;;;17.08;75.06
59329;BME280;45100;46.926;7.452;2023-08-07T11:57:56;95694.36;;;16.73;65.58
59329;BME280;45100;46.926;7.452;2023-08-07T12:00:28;95693.94;;;16.57;67.51
59329;BME280;45100;46.926;7.452;2023-08-07T12:02:56;95697.62;;;16.46;65.83
59329;BME280;45100;46.926;7.452;2023-08-07T12:05:39;95704.53;;;16.46;70.70
59329;BME280;45100;46.926;7.452;2023-08-07T12:07:57;95706.48;;;16.55;71.62
59329;BME280;45100;46.926;7.452;2023-08-07T12:10:28;95703.48;;;16.70;72.24
59329;BME280;45100;46.926;7.452;2023-08-07T12:12:59;95706.12;;;16.87;66.89
59329;BME280;45100;46.926;7.452;2023-08-07T12:15:29;95704.54;;;17.05;63.21
59329;BME280;45100;46.926;7.452;2023-08-07T12:18:02;95697.98;;;17.22;58.10
59329;BME280;45100;46.926;7.452;2023-08-07T12:20:30;95700.20;;;17.32;59.89
59329;BME280;45100;46.926;7.452;2023-08-07T12:25:33;95693.84;;;17.68;60.09
59329;BME280;45100;46.926;7.452;2023-08-07T12:28:04;95688.78;;;17.92;56.08
59329;BME280;45100;46.926;7.452;2023-08-07T12:30:36;95685.84;;;18.12;55.34
59329;BME280;45100;46.926;7.452;2023-08-07T12:33:08;95689.05;;;18.26;58.31
59329;BME280;45100;46.926;7.452;2023-08-07T12:35:36;95689.72;;;18.32;54.86
59329;BME280;45100;46.926;7.452;2023-08-07T12:38:06;95691.40;;;18.31;52.71
59329;BME280;45100;46.926;7.452;2023-08-07T12:40:37;95683.19;;;18.20;50.81
59329;BME280;45100;46.926;7.452;2023-08-07T12:43:07;95686.86;;;18.09;51.75
59329;BME280;45100;46.926;7.452;2023-08-07T12:45:37;95690.84;;;18.01;55.34
59329;BME280;45100;46.926;7.452;2023-08-07T12:48:07;95688.37;;;17.96;53.73
59329;BME280;45100;46.926;7.452;2023-08-07T12:50:38;95691.48;;;17.87;51.25
59329;BME280;45100;46.926;7.452;2023-08-07T12:53:08;95690.83;;;17.77;53.65
59329;BME280;45100;46.926;7.452;2023-08-07T12:55:39;95685.90;;;17.68;55.59
59329;BME280;45100;46.926;7.452;2023-08-07T13:00:43;95681.61;;;17.55;57.62
59329;BME280;45100;46.926;7.452;2023-08-07T13:03:12;95681.10;;;17.50;57.80
59329;BME280;45100;46.926;7.452;2023-08-07T13:05:43;95675.25;;;17.45;57.37
59329;BME280;45100;46.926;7.452;2023-08-07T13:08:14;95675.92;;;17.50;58.51
59329;BME280;45100;46.926;7.452;2023-08-07T13:10:45;95675.83;;;17.69;60.79
59329;BME280;45100;46.926;7.452;2023-08-07T13:13:16;95668.97;;;17.96;58.84
59329;BME280;45100;46.926;7.452;2023-08-07T13:15:46;95664.23;;;18.23;55.96
59329;BME280;45100;46.926;7.452;2023-08-07T13:18:17;95676.00;;;18.38;54.34
59329;BME280;45100;46.926;7.452;2023-08-07T13:20:48;95671.98;;;18.42;51.77
59329;BME280;45100;46.926;7.452;2023-08-07T13:23:18;95672.34;;;18.40;51.85
59329;BME280;45100;46.926;7.452;2023-08-07T13:25:49;95677.23;;;18.32;50.84
59329;BME280;45100;46.926;7.452;2023-08-07T13:28:20;95676.64;;;18.20;52.78
59329;BME280;45100;46.926;7.452;2023-08-07T13:30:54;95676.11;;;18.13;50.06
59329;BME280;45100;46.926;7.452;2023-08-07T13:33:21;95677.56;;;18.17;51.21
59329;BME280;45100;46.926;7.452;2023-08-07T13:35:51;95677.66;;;18.32;49.54
59329;BME280;45100;46.926;7.452;2023-08-07T13:40:55;95669.41;;;18.60;47.02
59329;BME280;45100;46.926;7.452;2023-08-07T13:43:25;95676.68;;;18.67;46.43
59329;BME280;45100;46.926;7.452;2023-08-07T13:45:55;95671.05;;;18.66;45.43
59329;BME280;45100;46.926;7.452;2023-08-07T13:48:28;95668.47;;;18.61;45.06
59329;BME280;45100;46.926;7.452;2023-08-07T13:53:30;95677.77;;;18.52;47.66
59329;BME280;45100;46.926;7.452;2023-08-07T13:58:32;95673.58;;;18.37;48.05
59329;BME280;45100;46.926;7.452;2023-08-07T14:01:02;95677.55;;;18.26;49.59
59329;BME280;45100;46.926;7.452;2023-08-07T14:03:33;95679.79;;;18.16;49.75
59329;BME280;45100;46.926;7.452;2023-08-07T14:06:03;95681.14;;;18.09;48.46
59329;BME280;45100;46.926;7.452;2023-08-07T14:08:35;95681.63;;;18.01;48.68